createdAt,value
2023-04-16T00:02:08.177Z,5.65
2023-04-16T00:04:36.065Z,5.80
2023-04-16T00:07:03.959Z,5.15
2023-04-16T00:09:33.016Z,5.75
2023-04-16T00:12:01.142Z,6.70
2023-04-16T00:14:28.923Z,7.82
2023-04-16T00:16:56.821Z,9.15
2023-04-16T00:19:24.735Z,9.52
2023-04-16T00:21:52.647Z,11.13
2023-04-16T00:24:20.455Z,10.63
2023-04-16T00:26:49.626Z,10.35
2023-04-16T00:29:17.408Z,9.55
2023-04-16T00:31:45.454Z,10.10
2023-04-16T00:34:13.235Z,10.13
2023-04-16T00:36:41.071Z,9.80
2023-04-16T00:39:09.140Z,9.30
2023-04-16T00:41:38.527Z,9.02
2023-04-16T00:44:08.058Z,8.75
2023-04-16T00:46:38.104Z,8.32
2023-04-16T00:49:06.149Z,7.13
2023-04-16T00:51:34.047Z,7.45
2023-04-16T00:54:02.729Z,7.13
2023-04-16T00:56:31.489Z,5.88
2023-04-16T00:59:00.479Z,6.32
2023-04-16T01:01:29.697Z,5.70
2023-04-16T01:03:57.795Z,5.78
2023-04-16T01:06:26.761Z,5.80
2023-04-16T01:08:54.709Z,5.97
2023-04-16T01:11:22.520Z,5.15
2023-04-16T01:13:51.355Z,6.03
2023-04-16T01:16:20.827Z,5.30
2023-04-16T01:18:49.981Z,4.55
2023-04-16T01:21:19.122Z,4.53
2023-04-16T01:23:46.906Z,4.18
2023-04-16T01:26:14.963Z,4.65
2023-04-16T01:28:42.994Z,4.47
2023-04-16T01:31:11.078Z,4.55
2023-04-16T01:33:48.720Z,4.95
2023-04-16T01:36:16.772Z,4.72
2023-04-16T01:38:45.943Z,5.25
2023-04-16T01:41:13.778Z,5.57
2023-04-16T01:43:42.761Z,5.35
2023-04-16T01:46:15.115Z,5.32
2023-04-16T01:48:43.411Z,5.93
2023-04-16T01:51:11.357Z,5.38
2023-04-16T01:53:39.432Z,5.63
2023-04-16T01:56:08.955Z,5.80
2023-04-16T01:58:37.069Z,5.55
2023-04-16T02:01:05.765Z,5.97
2023-04-16T02:03:34.328Z,7.00
2023-04-16T02:06:02.365Z,6.15
2023-04-16T02:08:30.708Z,5.63
2023-04-16T02:10:59.072Z,6.55
2023-04-16T02:13:28.894Z,6.50
2023-04-16T02:15:56.764Z,6.63
2023-04-16T02:18:50.441Z,6.63
2023-04-16T02:21:20.481Z,7.07
2023-04-16T02:23:51.657Z,7.10
2023-04-16T02:26:23.835Z,6.20
2023-04-16T02:28:53.606Z,7.10
2023-04-16T02:31:28.422Z,7.70
2023-04-16T02:33:57.548Z,7.07
2023-04-16T02:36:25.587Z,6.90
2023-04-16T02:38:56.822Z,7.97
2023-04-16T02:41:24.928Z,7.32
2023-04-16T02:43:54.037Z,8.80
2023-04-16T02:46:21.919Z,8.43
2023-04-16T02:48:51.142Z,8.10
2023-04-16T02:51:18.956Z,8.35
2023-04-16T02:53:46.781Z,7.93
2023-04-16T02:56:15.286Z,7.38
2023-04-16T02:58:43.091Z,7.75
2023-04-16T03:01:12.293Z,6.78
2023-04-16T03:03:40.322Z,6.53
2023-04-16T03:06:08.108Z,6.25
2023-04-16T03:08:35.911Z,6.82
2023-04-16T03:11:03.733Z,6.85
2023-04-16T03:13:31.712Z,5.72
2023-04-16T03:15:59.611Z,6.45
2023-04-16T03:18:28.971Z,6.72
2023-04-16T03:20:56.783Z,6.18
2023-04-16T03:23:24.648Z,6.45
2023-04-16T03:25:53.130Z,6.40
2023-04-16T03:28:20.984Z,6.15
2023-04-16T03:30:52.978Z,6.45
2023-04-16T03:33:21.364Z,6.00
2023-04-16T03:35:56.184Z,5.93
2023-04-16T03:40:52.693Z,6.50
2023-04-16T03:43:20.764Z,6.10
2023-04-16T03:45:48.873Z,6.22
2023-04-16T03:48:18.883Z,5.95
2023-04-16T03:50:48.369Z,5.38
2023-04-16T03:53:19.411Z,5.57
2023-04-16T03:55:51.279Z,5.95
2023-04-16T03:58:19.832Z,5.88
2023-04-16T04:00:48.545Z,6.07
2023-04-16T04:03:18.603Z,6.55
2023-04-16T04:05:48.897Z,6.97
2023-04-16T04:08:23.581Z,6.07
2023-04-16T04:10:53.582Z,7.40
2023-04-16T04:13:23.941Z,6.10
2023-04-16T04:15:53.049Z,6.28
2023-04-16T04:18:22.053Z,6.15
2023-04-16T04:20:49.897Z,6.55
2023-04-16T04:23:20.953Z,7.47
2023-04-16T04:25:50.564Z,6.47
2023-04-16T04:28:18.373Z,6.55
2023-04-16T04:30:46.224Z,7.40
2023-04-16T04:33:14.546Z,6.05
2023-04-16T04:35:43.738Z,6.95
2023-04-16T04:38:12.346Z,7.45
2023-04-16T04:40:41.470Z,9.10
2023-04-16T04:43:11.052Z,8.40
2023-04-16T04:45:39.435Z,8.45
2023-04-16T04:48:07.416Z,8.52
2023-04-16T04:50:35.918Z,9.73
2023-04-16T04:53:09.789Z,8.90
2023-04-16T04:55:38.181Z,8.45
2023-04-16T04:58:06.514Z,8.40
2023-04-16T05:00:36.826Z,8.57
2023-04-16T05:03:06.793Z,9.70
2023-04-16T05:05:34.723Z,9.30
2023-04-16T05:08:02.584Z,10.57
2023-04-16T05:10:30.384Z,9.57
2023-04-16T05:12:58.150Z,9.90
2023-04-16T05:15:25.937Z,9.32
2023-04-16T05:17:56.168Z,10.07
2023-04-16T05:20:24.840Z,9.88
2023-04-16T05:22:52.807Z,10.82
2023-04-16T05:25:20.725Z,9.48
2023-04-16T05:27:48.606Z,11.00
2023-04-16T05:30:16.428Z,10.65
2023-04-16T05:32:44.255Z,10.30
2023-04-16T05:35:15.229Z,13.52
2023-04-16T05:37:44.581Z,11.10
2023-04-16T05:40:14.379Z,13.23
2023-04-16T05:42:42.181Z,9.45
2023-04-16T05:45:10.919Z,8.70
2023-04-16T05:47:38.742Z,8.02
2023-04-16T05:50:07.760Z,7.32
2023-04-16T05:52:36.872Z,7.22
2023-04-16T05:55:04.895Z,8.45
2023-04-16T05:57:32.682Z,8.30
2023-04-16T06:00:00.534Z,25.80
2023-04-16T06:02:30.488Z,14.77
2023-04-16T06:04:58.468Z,10.63
2023-04-16T06:07:26.298Z,10.10
2023-04-16T06:09:55.496Z,7.18
2023-04-16T06:12:23.405Z,12.70
2023-04-16T06:14:51.542Z,11.93
2023-04-16T06:17:19.451Z,10.52
2023-04-16T06:19:47.247Z,6.65
2023-04-16T06:22:15.317Z,24.95
2023-04-16T06:24:43.165Z,26.40
2023-04-16T06:27:12.428Z,9.32
2023-04-16T06:29:41.793Z,9.10
2023-04-16T06:32:09.997Z,6.55
2023-04-16T06:34:38.790Z,6.15
2023-04-16T06:37:09.102Z,5.03
2023-04-16T06:39:38.297Z,5.18
2023-04-16T06:42:06.287Z,5.60
2023-04-16T06:44:36.598Z,5.22
2023-04-16T06:47:04.452Z,4.97
2023-04-16T06:49:32.498Z,4.85
2023-04-16T06:52:00.392Z,4.78
2023-04-16T06:54:28.247Z,5.18
2023-04-16T06:56:56.056Z,5.00
2023-04-16T06:59:23.970Z,5.47
2023-04-16T07:01:53.782Z,5.85
2023-04-16T07:04:21.885Z,5.63
2023-04-16T07:06:49.857Z,5.20
2023-04-16T07:09:18.585Z,6.15
2023-04-16T07:11:46.415Z,5.97
2023-04-16T07:14:14.358Z,6.15
2023-04-16T07:16:42.220Z,6.13
2023-04-16T07:19:11.709Z,5.90
2023-04-16T07:21:43.464Z,6.07
2023-04-16T07:24:11.999Z,6.18
2023-04-16T07:26:39.812Z,6.10
2023-04-16T07:29:07.663Z,6.00
2023-04-16T07:31:35.634Z,6.43
2023-04-16T07:34:03.530Z,5.68
2023-04-16T07:36:32.856Z,6.03
2023-04-16T07:39:00.722Z,5.88
2023-04-16T07:41:29.466Z,6.28
2023-04-16T07:43:57.726Z,6.18
2023-04-16T07:46:30.476Z,5.95
2023-04-16T07:49:04.046Z,6.30
2023-04-16T07:51:33.243Z,5.75
2023-04-16T07:54:01.182Z,5.53
2023-04-16T07:56:29.025Z,6.57
2023-04-16T07:58:58.349Z,6.63
2023-04-16T08:01:31.383Z,7.15
2023-04-16T08:03:59.380Z,7.07
2023-04-16T08:06:27.734Z,6.57
2023-04-16T08:08:57.367Z,6.18
2023-04-16T08:11:25.341Z,5.75
2023-04-16T08:13:53.287Z,5.03
2023-04-16T08:16:21.163Z,5.65
2023-04-16T08:18:49.122Z,5.47
2023-04-16T08:21:17.039Z,5.38
2023-04-16T08:23:44.944Z,6.07
2023-04-16T08:26:14.184Z,5.20
2023-04-16T08:28:42.006Z,6.38
2023-04-16T08:31:09.956Z,5.75
2023-04-16T08:33:37.895Z,6.63
2023-04-16T08:36:06.490Z,6.32
2023-04-16T08:38:34.687Z,6.55
2023-04-16T08:41:07.426Z,6.78
2023-04-16T08:43:39.366Z,8.07
2023-04-16T08:46:07.836Z,9.57
2023-04-16T08:48:36.108Z,7.70
2023-04-16T08:51:04.369Z,8.18
2023-04-16T08:53:37.884Z,8.20
2023-04-16T08:56:09.689Z,7.82
2023-04-16T08:58:40.561Z,8.95
2023-04-16T09:01:10.926Z,11.63
2023-04-16T09:03:39.417Z,11.57
2023-04-16T09:06:08.387Z,12.02
2023-04-16T09:08:38.080Z,12.07
2023-04-16T09:11:06.599Z,11.95
2023-04-16T09:13:34.646Z,12.45
2023-04-16T09:16:04.441Z,13.00
2023-04-16T09:18:32.296Z,13.18
2023-04-16T09:21:00.959Z,12.98
2023-04-16T09:23:29.221Z,12.98
2023-04-16T09:25:59.560Z,11.48
2023-04-16T09:28:40.347Z,11.50
2023-04-16T09:31:15.085Z,11.65
2023-04-16T09:33:43.832Z,10.98
2023-04-16T09:36:12.093Z,11.00
2023-04-16T09:38:56.241Z,11.52
2023-04-16T09:41:26.999Z,10.77
2023-04-16T09:43:59.364Z,11.70
2023-04-16T09:46:31.270Z,10.40
2023-04-16T09:48:59.235Z,7.72
2023-04-16T09:51:28.362Z,8.27
2023-04-16T09:53:58.200Z,8.95
2023-04-16T09:56:26.918Z,8.07
2023-04-16T09:58:58.987Z,7.68
2023-04-16T10:01:27.205Z,8.50
2023-04-16T10:03:56.591Z,8.63
2023-04-16T10:06:27.163Z,7.97
2023-04-16T10:08:57.302Z,7.45
2023-04-16T10:11:32.072Z,6.72
2023-04-16T10:14:00.416Z,7.18
2023-04-16T10:16:30.809Z,7.35
2023-04-16T10:19:00.353Z,7.32
2023-04-16T10:21:34.107Z,7.22
2023-04-16T10:24:02.617Z,7.10
2023-04-16T10:26:31.123Z,6.50
2023-04-16T10:28:59.726Z,7.20
2023-04-16T10:31:29.933Z,7.57
2023-04-16T10:33:58.948Z,7.22
2023-04-16T10:36:28.101Z,6.75
2023-04-16T10:39:00.681Z,6.82
2023-04-16T10:41:29.141Z,7.60
2023-04-16T10:44:09.305Z,7.43
2023-04-16T10:46:39.818Z,7.75
2023-04-16T10:49:15.859Z,7.40
2023-04-16T10:51:54.345Z,7.72
2023-04-16T10:54:25.392Z,7.35
2023-04-16T10:56:54.353Z,7.32
2023-04-16T10:59:24.558Z,7.63
2023-04-16T11:01:53.889Z,7.57
2023-04-16T11:04:31.043Z,7.47
2023-04-16T11:07:05.408Z,8.77
2023-04-16T11:09:47.266Z,7.05
2023-04-16T11:12:16.430Z,6.70
2023-04-16T11:14:47.882Z,7.45
2023-04-16T11:17:16.082Z,7.60
2023-04-16T11:19:44.593Z,7.38
2023-04-16T11:22:17.154Z,7.75
2023-04-16T11:24:45.951Z,10.10
2023-04-16T11:27:15.215Z,8.95
2023-04-16T11:29:45.071Z,7.43
2023-04-16T11:32:21.756Z,7.43
2023-04-16T11:34:49.666Z,7.30
2023-04-16T11:37:21.783Z,7.40
2023-04-16T11:39:53.662Z,6.85
2023-04-16T11:42:23.590Z,6.18
2023-04-16T11:44:55.799Z,5.75
2023-04-16T11:47:24.555Z,6.22
2023-04-16T11:49:52.659Z,5.88
2023-04-16T11:52:29.561Z,5.78
2023-04-16T11:54:57.834Z,5.57
2023-04-16T11:57:27.207Z,6.57
2023-04-16T12:00:01.336Z,6.32
2023-04-16T12:02:42.163Z,6.82
2023-04-16T12:05:29.128Z,7.43
2023-04-16T12:07:59.040Z,6.25
2023-04-16T12:10:27.356Z,6.65
2023-04-16T12:12:55.278Z,6.85
2023-04-16T12:15:23.093Z,7.35
2023-04-16T12:17:54.426Z,7.78
2023-04-16T12:20:22.294Z,7.03
2023-04-16T12:22:50.700Z,7.13
2023-04-16T12:25:23.979Z,7.50
2023-04-16T12:27:54.290Z,8.07
2023-04-16T12:30:24.362Z,8.70
2023-04-16T12:32:53.505Z,8.90
2023-04-16T12:35:32.426Z,10.30
2023-04-16T12:38:01.024Z,9.95
2023-04-16T12:40:30.778Z,9.30
2023-04-16T12:42:59.237Z,9.13
2023-04-16T12:45:27.394Z,8.95
2023-04-16T12:47:56.372Z,9.70
2023-04-16T12:50:24.870Z,8.70
2023-04-16T12:52:53.359Z,8.48
2023-04-16T12:55:21.739Z,7.82
2023-04-16T12:57:52.975Z,8.38
2023-04-16T13:00:21.565Z,8.23
2023-04-16T13:02:51.200Z,9.43
2023-04-16T13:05:19.744Z,9.18
2023-04-16T13:07:47.912Z,8.27
2023-04-16T13:10:16.747Z,7.90
2023-04-16T13:12:46.603Z,8.88
2023-04-16T13:15:16.212Z,10.10
2023-04-16T13:17:44.385Z,10.02
2023-04-16T13:20:12.667Z,9.80
2023-04-16T13:22:40.915Z,10.30
2023-04-16T13:25:10.399Z,9.93
2023-04-16T13:27:38.641Z,10.75
2023-04-16T13:30:07.663Z,9.75
2023-04-16T13:32:36.963Z,9.32
2023-04-16T13:35:05.226Z,8.75
2023-04-16T13:37:33.087Z,11.30
2023-04-16T13:40:00.904Z,12.63
2023-04-16T13:42:28.889Z,10.43
2023-04-16T13:44:58.210Z,11.13
2023-04-16T13:47:26.378Z,15.25
2023-04-16T13:49:55.744Z,11.18
2023-04-16T13:52:23.560Z,11.70
2023-04-16T13:54:51.353Z,11.75
2023-04-16T13:57:21.960Z,10.55
2023-04-16T13:59:49.869Z,10.20
2023-04-16T14:02:17.887Z,10.07
2023-04-16T14:04:46.118Z,10.38
2023-04-16T14:07:16.287Z,11.25
2023-04-16T14:09:44.533Z,11.95
2023-04-16T14:12:12.691Z,12.15
2023-04-16T14:14:40.992Z,13.43
2023-04-16T14:17:10.372Z,12.52
2023-04-16T14:19:38.279Z,14.88
2023-04-16T14:22:09.555Z,13.13
2023-04-16T14:24:39.136Z,26.77
2023-04-16T14:27:07.292Z,12.98
2023-04-16T14:29:36.357Z,12.27
2023-04-16T14:32:04.791Z,12.45
2023-04-16T14:34:32.804Z,12.00
2023-04-16T14:37:02.328Z,12.02
2023-04-16T14:39:31.119Z,12.80
2023-04-16T14:42:00.403Z,12.75
2023-04-16T14:44:28.769Z,12.95
2023-04-16T14:46:57.422Z,12.52
2023-04-16T14:49:26.076Z,13.98
2023-04-16T14:51:53.954Z,12.95
2023-04-16T14:54:21.790Z,13.60
2023-04-16T14:56:50.950Z,14.27
2023-04-16T14:59:20.270Z,14.45
2023-04-16T15:01:48.204Z,13.82
2023-04-16T15:04:16.817Z,15.68
2023-04-16T15:06:46.471Z,16.00
2023-04-16T15:09:14.611Z,15.43
2023-04-16T15:11:42.528Z,16.45
2023-04-16T15:14:10.923Z,15.80
2023-04-16T15:16:40.535Z,17.52
2023-04-16T15:19:08.866Z,18.60
2023-04-16T15:21:37.044Z,17.48
2023-04-16T15:24:05.417Z,15.73
2023-04-16T15:26:33.330Z,17.38
2023-04-16T15:29:01.624Z,15.52
2023-04-16T15:31:29.891Z,15.75
2023-04-16T15:33:59.919Z,15.05
2023-04-16T15:36:27.836Z,15.80
2023-04-16T15:38:55.837Z,14.85
2023-04-16T15:41:24.490Z,14.55
2023-04-16T15:43:52.332Z,14.82
2023-04-16T15:46:20.141Z,14.80
2023-04-16T15:48:47.981Z,14.90
2023-04-16T15:51:17.152Z,16.13
2023-04-16T15:53:45.269Z,15.73
2023-04-16T15:56:13.203Z,14.48
2023-04-16T15:58:41.353Z,14.90
2023-04-16T16:01:09.385Z,16.38
2023-04-16T16:03:37.292Z,14.35
2023-04-16T16:06:05.678Z,15.40
2023-04-16T16:08:37.723Z,13.80
2023-04-16T16:11:11.385Z,14.68
2023-04-16T16:13:39.213Z,15.68
2023-04-16T16:16:07.340Z,15.57
2023-04-16T16:18:36.354Z,15.38
2023-04-16T16:21:04.366Z,14.10
2023-04-16T16:23:33.842Z,14.43
2023-04-16T16:26:01.809Z,13.05
2023-04-16T16:28:29.674Z,12.77
2023-04-16T16:30:58.762Z,12.27
2023-04-16T16:33:27.940Z,11.82
2023-04-16T16:35:55.831Z,11.63
2023-04-16T16:38:23.794Z,10.48
2023-04-16T16:40:52.943Z,9.43
2023-04-16T16:43:20.764Z,9.50
2023-04-16T16:45:48.955Z,11.02
2023-04-16T16:48:16.785Z,9.35
2023-04-16T16:50:44.576Z,9.10
2023-04-16T16:53:12.409Z,10.35
2023-04-16T16:55:40.400Z,10.50
2023-04-16T16:58:09.710Z,8.93
2023-04-16T17:00:37.803Z,9.30
2023-04-16T17:03:05.924Z,8.55
2023-04-16T17:05:33.796Z,8.52
2023-04-16T17:08:01.594Z,7.82
2023-04-16T17:10:29.452Z,8.95
2023-04-16T17:12:57.312Z,7.90
2023-04-16T17:15:26.589Z,8.27
2023-04-16T17:17:54.576Z,8.18
2023-04-16T17:20:22.611Z,8.65
2023-04-16T17:22:51.168Z,8.18
2023-04-16T17:25:19.091Z,9.50
2023-04-16T17:27:46.937Z,8.35
2023-04-16T17:30:15.503Z,10.15
2023-04-16T17:32:44.825Z,9.32
2023-04-16T17:35:13.854Z,9.27
2023-04-16T17:37:41.806Z,10.48
2023-04-16T17:40:10.577Z,9.02
2023-04-16T17:42:39.605Z,9.57
2023-04-16T17:45:08.480Z,9.57
2023-04-16T17:47:36.785Z,10.00
2023-04-16T17:50:07.194Z,9.85
2023-04-16T17:52:35.187Z,9.77
2023-04-16T17:55:03.735Z,9.57
2023-04-16T17:57:32.086Z,10.18
2023-04-16T18:00:00.011Z,10.18
2023-04-16T18:02:28.012Z,10.10
2023-04-16T18:04:56.193Z,9.45
2023-04-16T18:07:25.607Z,10.10
2023-04-16T18:09:53.420Z,9.13
2023-04-16T18:12:21.435Z,9.80
2023-04-16T18:14:49.306Z,10.23
2023-04-16T18:17:17.806Z,10.95
2023-04-16T18:19:45.651Z,9.88
2023-04-16T18:22:13.650Z,9.38
2023-04-16T18:24:42.813Z,10.13
2023-04-16T18:27:10.753Z,9.95
2023-04-16T18:29:40.174Z,10.00
2023-04-16T18:32:11.783Z,10.40
2023-04-16T18:34:40.271Z,10.98
2023-04-16T18:37:08.781Z,9.48
2023-04-16T18:39:36.895Z,11.73
2023-04-16T18:42:06.494Z,11.27
2023-04-16T18:44:34.561Z,12.18
2023-04-16T18:47:02.525Z,12.45
2023-04-16T18:49:30.448Z,10.88
2023-04-16T18:51:58.347Z,11.68
2023-04-16T18:54:27.606Z,11.63
2023-04-16T18:56:56.844Z,10.32
2023-04-16T18:59:27.189Z,11.73
2023-04-16T19:01:55.160Z,11.32
2023-04-16T19:04:23.045Z,11.65
2023-04-16T19:06:50.985Z,12.70
2023-04-16T19:09:19.840Z,11.98
2023-04-16T19:11:50.547Z,11.93
2023-04-16T19:14:18.575Z,12.15
2023-04-16T19:16:47.837Z,12.25
2023-04-16T19:19:15.690Z,12.82
2023-04-16T19:21:43.664Z,12.63
2023-04-16T19:24:11.671Z,11.90
2023-04-16T19:26:39.571Z,12.95
2023-04-16T19:29:07.669Z,11.32
2023-04-16T19:31:35.629Z,12.60
2023-04-16T19:34:04.874Z,11.00
2023-04-16T19:36:33.266Z,12.65
2023-04-16T19:39:01.097Z,12.95
2023-04-16T19:41:29.048Z,12.57
2023-04-16T19:43:56.868Z,13.10
2023-04-16T19:46:24.857Z,14.05
2023-04-16T19:48:52.881Z,15.13
2023-04-16T19:51:22.169Z,14.00
2023-04-16T19:53:50.518Z,14.80
2023-04-16T19:56:18.845Z,14.30
2023-04-16T19:58:46.735Z,13.85
2023-04-16T20:01:14.917Z,14.20
2023-04-16T20:03:42.981Z,13.77
2023-04-16T20:06:11.142Z,14.27
2023-04-16T20:08:40.797Z,14.15
2023-04-16T20:11:08.888Z,14.23
2023-04-16T20:13:37.677Z,14.43
2023-04-16T20:16:05.854Z,14.02
2023-04-16T20:18:38.200Z,14.60
2023-04-16T20:21:06.132Z,15.82
2023-04-16T20:23:34.101Z,15.45
2023-04-16T20:26:04.376Z,14.98
2023-04-16T20:28:32.251Z,14.32
2023-04-16T20:31:00.173Z,14.68
2023-04-16T20:33:27.948Z,13.98
2023-04-16T20:35:56.202Z,14.55
2023-04-16T20:38:24.456Z,13.35
2023-04-16T20:40:58.063Z,14.00
2023-04-16T20:43:29.543Z,14.30
2023-04-16T20:45:57.463Z,14.73
2023-04-16T20:48:25.987Z,14.55
2023-04-16T20:50:59.507Z,15.85
2023-04-16T20:53:27.656Z,14.77
2023-04-16T20:55:55.598Z,14.45
2023-04-16T20:58:23.560Z,15.20
2023-04-16T21:00:53.136Z,14.13
2023-04-16T21:03:21.606Z,15.32
2023-04-16T21:05:50.880Z,14.27
2023-04-16T21:08:18.899Z,14.40
2023-04-16T21:10:46.990Z,14.98
2023-04-16T21:13:14.864Z,15.18
2023-04-16T21:15:44.278Z,15.48
2023-04-16T21:18:13.717Z,13.88
2023-04-16T21:20:41.508Z,15.00
2023-04-16T21:23:09.361Z,15.57
2023-04-16T21:25:37.134Z,14.13
2023-04-16T21:28:05.174Z,14.90
2023-04-16T21:30:32.976Z,14.73
2023-04-16T21:33:00.783Z,14.82
2023-04-16T21:35:32.516Z,15.25
2023-04-16T21:38:00.309Z,14.48
2023-04-16T21:40:28.146Z,14.05
2023-04-16T21:42:55.875Z,14.02
2023-04-16T21:45:23.668Z,14.85
2023-04-16T21:47:51.629Z,16.27
2023-04-16T21:50:19.522Z,15.05
2023-04-16T21:52:48.642Z,16.38
2023-04-16T21:55:16.508Z,15.27
2023-04-16T21:57:44.312Z,16.85
2023-04-16T22:00:14.103Z,16.38
2023-04-16T22:02:43.019Z,16.15
2023-04-16T22:05:11.339Z,17.10
2023-04-16T22:07:39.289Z,17.10
2023-04-16T22:10:10.722Z,16.73
2023-04-16T22:12:39.842Z,18.02
2023-04-16T22:15:09.022Z,16.90
2023-04-16T22:17:36.979Z,16.60
2023-04-16T22:20:08.539Z,16.33
2023-04-16T22:22:36.422Z,16.38
2023-04-16T22:25:04.404Z,16.40
2023-04-16T22:27:33.964Z,16.90
2023-04-16T22:30:02.722Z,16.25
2023-04-16T22:32:31.563Z,17.40
2023-04-16T22:34:59.388Z,15.82
2023-04-16T22:37:27.315Z,17.67
2023-04-16T22:39:55.069Z,15.82
2023-04-16T22:42:24.194Z,17.13
2023-04-16T22:44:53.312Z,15.85
2023-04-16T22:47:21.474Z,16.50
2023-04-16T22:49:49.307Z,17.10
2023-04-16T22:52:17.077Z,15.98
2023-04-16T22:54:44.833Z,16.65
2023-04-16T22:57:12.624Z,17.25
2023-04-16T22:59:40.401Z,17.48
2023-04-16T23:02:09.526Z,17.00
2023-04-16T23:04:37.342Z,18.00
2023-04-16T23:07:05.123Z,18.58
2023-04-16T23:09:33.398Z,16.27
2023-04-16T23:12:02.006Z,14.50
2023-04-16T23:14:30.237Z,12.13
2023-04-16T23:16:58.004Z,11.18
2023-04-16T23:19:27.168Z,10.55
2023-04-16T23:21:54.933Z,9.55
2023-04-16T23:24:22.708Z,9.27
2023-04-16T23:26:52.383Z,9.18
2023-04-16T23:29:20.419Z,9.25
2023-04-16T23:31:48.373Z,9.40
2023-04-16T23:34:16.313Z,8.75
2023-04-16T23:36:46.023Z,9.25
2023-04-16T23:39:13.847Z,9.25
2023-04-16T23:41:41.637Z,10.48
2023-04-16T23:44:09.411Z,9.95
2023-04-16T23:46:38.943Z,9.88
2023-04-16T23:49:06.763Z,10.30
2023-04-16T23:51:34.554Z,10.77
2023-04-16T23:54:03.656Z,9.73
2023-04-16T23:56:31.600Z,11.73
2023-04-16T23:58:59.558Z,10.52
